• Join FlightAware (Why Join?)
  • Login
  • US Flag 
03:44PM EST


 

Airport Tracker/Info


-or-


 

Live Flight TrackerFlight Track Log ✈ SWA3143 ✈ 12-Apr-2013 ✈ KMCO - KMHT

Flight Track Log - Related Links

Times and Time Zones

All times are in EDT time to prevent confusion due to time zone crossing. See the SWA3143 flight status page for this flight to view local times or setup timezone preferences in your user account.

Time Position Orientation Groundspeed Altitude Reporting Facility
EDT Latitude Longitude Course Direction KTS MPH feet Rate Location/Type
02:07PM 28.4000 -81.3000 156° South 151 174 900  Level Orlando TRACON
02:08PM 28.3667 -81.2833 156° South 220 253 2,300 2,100 Climbing Orlando TRACON
02:09PM 28.3167 -81.2333 139° Southeast 215 247 5,100 2,700 Climbing Orlando TRACON
02:10PM 28.2833 -81.1833 127° Southeast 290 334 7,700 2,700 Climbing Orlando TRACON
02:11PM 28.3000 -81.0833 79° East 325 374 10,300 2,400 Climbing Orlando TRACON
02:13PM 28.4800 -81.1261 348° North 356 410 14,900 2,340 Climbing Jacksonville Center
02:14PM 28.5744 -81.1669 339° North 361 415 17,600 2,580 Climbing Jacksonville Center
02:15PM 28.6772 -81.2125 339° North 373 429 20,100 2,100 Climbing Jacksonville Center
02:16PM 28.7822 -81.2558 340° North 384 442 21,900 1,800 Climbing Jacksonville Center
02:17PM 28.8914 -81.3014 340° North 399 459 23,800 1,860 Climbing Jacksonville Center
02:18PM 29.0047 -81.3494 340° North 414 476 25,700 1,440 Climbing Jacksonville Center
02:19PM 29.1219 -81.3928 342° North 428 493 26,700 1,260 Climbing Jacksonville Center
02:20PM 29.2517 -81.4075 354° North 442 509 28,300 1,500 Climbing Jacksonville Center
02:21PM 29.3833 -81.4172 356° North 457 526 29,800 1,560 Climbing Jacksonville Center
02:22PM 29.5108 -81.4322 354° North 462 532 31,500 1,500 Climbing Jacksonville Center
02:23PM 29.6300 -81.4422 356° North 469 540 32,900 1,260 Climbing Jacksonville Center
02:24PM 29.7886 -81.4567 355° North 480 552 34,100 1,020 Climbing Jacksonville Center
02:25PM 29.9225 -81.4714 355° North 480 552 35,000 420 Climbing Jacksonville Center
02:26PM 30.0542 -81.4839 355° North 480 552 35,000 300 Level Jacksonville Center
02:27PM 30.1878 -81.4939 356° North 480 552 35,600 600 Climbing Jacksonville Center
02:28PM 30.3236 -81.5089 355° North 480 552 36,300 660 Climbing Jacksonville Center
02:29PM 30.4614 -81.4997 North 487 560 37,000 300 Climbing Jacksonville Center
02:30PM 30.5992 -81.4903 North 487 560 37,000  Level Jacksonville Center
02:31PM 30.7325 -81.4786 North 482 555 37,000  Level Jacksonville Center
02:32PM 30.8683 -81.4669 North 482 555 37,000  Level Jacksonville Center
02:33PM 31.0058 -81.4578 North 482 555 37,000  Level Jacksonville Center
02:34PM 31.1414 -81.4483 North 482 555 37,000  Level Jacksonville Center
02:35PM 31.2769 -81.4317 North 483 556 37,000  Level Jacksonville Center
02:36PM 31.4144 -81.3931 13° North 496 571 37,000  Level Jacksonville Center
02:37PM 31.5497 -81.3592 12° North 503 579 37,000  Level Jacksonville Center
02:38PM 31.6747 -81.3278 12° North 509 586 37,000  Level Jacksonville Center
02:39PM 31.8286 -81.2836 14° North 504 580 37,000  Level Jacksonville Center
02:40PM 31.9700 -81.2494 12° North 517 595 37,000  Level Jacksonville Center
02:41PM 32.1072 -81.2100 14° North 517 595 37,000  Level Jacksonville Center
02:42PM 32.2422 -81.1511 20° North 510 587 37,000  Level Jacksonville Center
02:43PM 32.3750 -81.0919 21° North 510 587 37,000  Level Jacksonville Center
02:44PM 32.5100 -81.0328 20° North 503 579 37,000  Level Jacksonville Center
02:45PM 32.6447 -80.9731 20° North 503 579 37,000  Level Jacksonville Center
02:46PM 32.7753 -80.9136 21° North 497 572 37,000  Level Jacksonville Center
02:47PM 32.9056 -80.8464 23° Northeast 502 578 37,000  Level Jacksonville Center
02:48PM 33.0383 -80.7814 22° Northeast 507 583 37,000  Level Jacksonville Center
02:49PM 33.1664 -80.7164 23° Northeast 507 583 37,000  Level Jacksonville Center
02:50PM 33.2950 -80.6561 21° North 502 578 37,000  Level Jacksonville Center
02:51PM 33.4231 -80.5906 23° Northeast 502 578 37,000  Level Jacksonville Center
02:52PM 33.5514 -80.5250 23° Northeast 496 571 37,000  Level Jacksonville Center
02:53PM 33.6817 -80.4642 21° North 496 571 37,000  Level Jacksonville Center
02:54PM 33.8097 -80.4006 22° Northeast 496 571 37,000  Level Jacksonville Center
02:55PM 33.9400 -80.3392 21° North 491 565 37,000  Level Jacksonville Center
02:56PM 34.0636 -80.2656 26° Northeast 491 565 37,000  Level Jacksonville Center
02:57PM 34.1847 -80.1739 32° Northeast 491 565 37,000  Level Jacksonville Center
02:58PM 34.3036 -80.0797 33° Northeast 506 582 37,000  Level Jacksonville Center
03:00PM 34.5306 -79.8903 34° Northeast 500 575 37,000  Level Washington Center
03:01PM 34.6486 -79.7953 33° Northeast 500 575 37,000  Level Washington Center
03:02PM 34.7667 -79.7053 32° Northeast 500 575 37,000  Level Washington Center
03:03PM 34.8783 -79.6122 34° Northeast 494 568 37,000  Level Washington Center
03:04PM 34.9942 -79.5167 34° Northeast 494 568 37,000  Level Washington Center
03:05PM 35.1078 -79.4231 34° Northeast 494 568 37,000  Level Washington Center
03:06PM 35.2236 -79.3269 34° Northeast 494 568 37,000  Level Washington Center
03:07PM 35.3392 -79.2331 34° Northeast 500 575 37,000  Level Washington Center
03:08PM 35.4417 -79.1486 34° Northeast 500 575 37,000  Level Washington Center
03:09PM 35.5658 -79.0442 34° Northeast 495 570 37,000  Level Washington Center
03:10PM 35.6811 -78.9519 33° Northeast 495 570 37,000  Level Washington Center
03:11PM 35.7967 -78.8519 35° Northeast 495 570 37,000  Level Washington Center
03:12PM 35.9119 -78.7567 34° Northeast 495 570 37,000  Level Washington Center
03:13PM 36.0231 -78.6558 36° Northeast 495 570 37,000  Level Washington Center
03:14PM 36.1339 -78.5572 36° Northeast 495 570 37,000  Level Washington Center
03:15PM 36.2450 -78.4583 36° Northeast 495 570 37,000  Level Washington Center
03:16PM 36.3600 -78.3594 35° Northeast 495 570 37,000  Level Washington Center
03:17PM 36.4706 -78.2600 36° Northeast 495 570 37,000  Level Washington Center
03:18PM 36.5833 -78.1578 36° Northeast 495 570 37,000  Level Washington Center
03:19PM 36.6897 -78.0603 36° Northeast 487 560 37,000  Level Washington Center
03:20PM 36.8025 -77.9603 35° Northeast 487 560 37,000  Level Washington Center
03:21PM 36.9128 -77.8572 37° Northeast 487 560 37,000  Level Washington Center
03:22PM 37.0211 -77.7536 37° Northeast 487 560 37,000  Level Washington Center
03:23PM 37.1336 -77.6500 36° Northeast 487 560 37,000  Level Washington Center
03:24PM 37.2458 -77.5433 37° Northeast 492 566 37,000  Level Washington Center
03:25PM 37.3581 -77.4392 36° Northeast 497 572 37,000  Level Washington Center
03:26PM 37.4703 -77.3319 37° Northeast 497 572 37,000  Level Washington Center
03:27PM 37.5822 -77.2269 37° Northeast 497 572 37,000  Level Washington Center
03:28PM 37.6922 -77.1192 38° Northeast 497 572 37,000  Level Washington Center
03:29PM 37.8019 -77.0136 37° Northeast 497 572 37,000  Level Washington Center
03:30PM 37.9117 -76.9078 37° Northeast 497 572 37,000  Level Washington Center
03:31PM 38.0211 -76.8042 37° Northeast 497 572 37,000  Level Washington Center
03:32PM 38.1306 -76.6953 38° Northeast 497 572 37,000  Level Washington Center
03:33PM 38.2400 -76.5883 37° Northeast 497 572 37,000  Level Washington Center
03:34PM 38.3514 -76.4814 37° Northeast 497 572 37,000  Level Washington Center
03:35PM 38.4583 -76.3711 39° Northeast 497 572 37,000  Level Washington Center
03:36PM 38.5694 -76.2636 37° Northeast 497 572 37,000  Level Washington Center
03:37PM 38.6828 -76.1581 36° Northeast 497 572 37,000  Level Washington Center
03:38PM 38.7917 -76.0497 38° Northeast 497 572 37,000  Level Washington Center
03:39PM 38.9025 -75.9411 37° Northeast 497 572 37,000  Level Washington Center
03:40PM 39.0111 -75.8319 38° Northeast 497 572 37,000  Level Washington Center
03:41PM 39.1197 -75.7200 39° Northeast 492 566 37,000  Level Washington Center
03:42PM 39.2300 -75.6103 38° Northeast 492 566 37,000  Level Washington Center
03:43PM 39.3342 -75.5003 39° Northeast 492 566 37,000  Level Washington Center
03:44PM 39.4467 -75.3900 37° Northeast 497 572 37,000  Level Washington Center
03:48PM 39.8492 -74.9700 39° Northeast 489 563 37,000  Level New York Center
03:49PM 39.9664 -74.8361 41° Northeast 500 575 37,000  Level New York Center
03:50PM 40.0681 -74.7308 38° Northeast 485 558 37,000  Level New York Center
03:51PM 40.1944 -74.6867 15° North 466 536 37,000  Level New York Center
03:52PM 40.3231 -74.6422 15° North 471 542 37,000  Level New York Center
03:53PM 40.4517 -74.5975 15° North 471 542 37,000  Level New York Center
03:54PM 40.6575 -74.5275 14° North 470 541 37,000  Level Boston Center
03:55PM 40.7833 -74.4822 15° North 475 547 37,000  Level Boston Center
03:57PM 40.9406 -74.4294 14° North 475 547 37,000  Level Boston Center
03:57PM 41.0831 -74.3897 12° North 469 540 37,000  Level Boston Center
03:58PM 41.2089 -74.3467 14° North 469 540 37,000  Level Boston Center
03:59PM 41.3222 -74.3031 16° North 469 540 37,000  Level Boston Center
04:00PM 41.4500 -74.2597 14° North 469 540 37,000  Level Boston Center
04:01PM 41.5944 -74.2111 14° North 475 547 37,000 -60 Level Boston Center
04:02PM 41.7244 -74.1647 15° North 475 547 36,900 -1,140 Descending Boston Center
04:03PM 41.8503 -74.1233 14° North 470 541 34,800 -2,820 Descending Boston Center
04:04PM 41.9842 -74.0767 15° North 477 549 31,300 -3,480 Descending Boston Center
04:06PM 42.0819 -73.9450 45° Northeast 472 543 27,800 -3,420 Descending Boston Center
04:07PM 42.1550 -73.7758 60° Northeast 495 570 24,500 -2,940 Descending Boston Center
04:08PM 42.2297 -73.6064 59° Northeast 501 577 22,000 -2,640 Descending Boston Center
04:09PM 42.2981 -73.4478 60° Northeast 502 578 19,300 -1,560 Descending Boston Center
04:09PM 42.3553 -73.3194 59° Northeast 469 540 19,000 -180 Descending Boston Center
04:10PM 42.4125 -73.1825 60° Northeast 453 521 19,000  Level Boston Center
04:11PM 42.4844 -73.0200 59° Northeast 453 521 19,000  Level Boston Center
04:12PM 42.5558 -72.8517 60° Northeast 464 534 19,000  Level Boston Center
04:14PM 42.6125 -72.7250 59° Northeast 452 520 19,000 -540 Level Boston Center
04:14PM 42.6753 -72.5783 60° Northeast 445 512 18,000 -1,620 Descending Boston Center
04:15PM 42.7339 -72.4372 60° Northeast 440 506 15,900 -2,100 Descending Boston Center
04:16PM 42.7900 -72.2931 62° Northeast 435 501 13,800 -2,220 Descending Boston Center
04:17PM 42.8083 -72.1289 81° East 404 465 11,500 -2,040 Descending Boston Center
04:18PM 42.8478 -72.0153 65° Northeast 375 432 9,800 -1,740 Descending Boston Center
04:19PM 42.8908 -71.8875 65° Northeast 341 392 8,100 -1,080 Descending Boston Center
04:21PM 42.9239 -71.7936 64° Northeast 315 362 7,700 -660 Descending Boston Center
04:21PM 42.9044 -71.7031 106° East 248 285 6,800 -660 Descending Boston Center
04:22PM 42.8564 -71.6894 168° South 167 192 6,400 -600 Descending Boston Center
04:24PM 42.8125 -71.6589 153° Southeast 162 186 5,600 -840 Descending Boston Center
04:25PM 42.8142 -71.6050 88° East 136 157 4,700 -1,440 Descending Boston Center
04:25PM 42.8472 -71.5536 49° Northeast 138 159 2,800 -1,500 Descending Boston Center
04:26PM 42.8739 -71.5164 46° Northeast 149 171 1,800 -900 Descending Boston Center
04:27PM 42.9050 -71.4792 41° Northeast 139 160 1,000 -720 Descending Boston Center
04:28PM 42.9256 -71.4533 43° Northeast 132 152 400 8,880 Descending Boston Center
04:30PM 42.9522 -71.4217 41° Northeast 132 152 19,000 9,180 Climbing Boston Center
04:31PM 42.9792 -71.3928 38° Northeast 132 152 19,000  Level Boston Center
04:32PM 43.0039 -71.3642 40° Northeast 132 152 19,000  Level Boston Center
04:34PM 42.9328 -71.4358 316° Northwest  Level Estimated
04:41PM 42.9328 -71.4358 316° Northwest  Level Estimated
04:42PM 42.9328 -71.4358 316° Northwest  Level Estimated
04:43PM 42.9328 -71.4358 316° Northwest  Level Estimated
04:44PM 42.9328 -71.4358 316° Northwest  Level Estimated
04:45PM 42.9328 -71.4358 316° Northwest  Level Estimated